Time;durP1;ratioP1;P1;durP2;ratioP2;P2;SDS_P1;SDS_P2;PMS_P1;PMS_P2;Temp;Humidity;BMP_temperature;BMP_pressure;BME280_temperature;BME280_humidity;BME280_pressure;Samples;Min_cycle;Max_cycle;Signal;HPM_P1;HPM_P2
2021/08/20 00:00:00;;;;;;;5.6;3.4;;;;;;;;;;;;;
2021/08/20 00:02:24;;;;;;;5.8;3.8;;;;;;;;;;;;;
2021/08/20 00:04:48;;;;;;;5.5;3.7;;;;;;;;;;;;;
2021/08/20 00:07:13;;;;;;;4.5;3.4;;;;;;;;;;;;;
2021/08/20 00:09:39;;;;;;;5.6;3.7;;;;;;;;;;;;;
2021/08/20 00:12:04;;;;;;;3.9;3.5;;;;;;;;;;;;;
2021/08/20 00:14:29;;;;;;;5.3;3.9;;;;;;;;;;;;;
2021/08/20 00:16:55;;;;;;;4.5;3.6;;;;;;;;;;;;;
2021/08/20 00:22:27;;;;;;;5.5;3.9;;;;;;;;;;;;;
2021/08/20 00:24:47;;;;;;;5.4;3.9;;;;;;;;;;;;;
2021/08/20 00:27:12;;;;;;;6.2;3.9;;;;;;;;;;;;;
2021/08/20 00:29:37;;;;;;;6.9;3.8;;;;;;;;;;;;;
2021/08/20 00:32:03;;;;;;;4.9;3.6;;;;;;;;;;;;;
2021/08/20 00:34:28;;;;;;;5.9;4;;;;;;;;;;;;;
2021/08/20 00:36:54;;;;;;;5.4;3.7;;;;;;;;;;;;;
2021/08/20 00:39:19;;;;;;;5.3;3.9;;;;;;;;;;;;;
2021/08/20 00:41:45;;;;;;;6.9;3.8;;;;;;;;;;;;;
2021/08/20 00:44:11;;;;;;;6.6;3.7;;;;;;;;;;;;;
2021/08/20 00:46:36;;;;;;;5;3.8;;;;;;;;;;;;;
2021/08/20 00:49:02;;;;;;;5.2;3.5;;;;;;;;;;;;;
2021/08/20 00:51:27;;;;;;;4.5;3.8;;;;;;;;;;;;;
2021/08/20 00:53:52;;;;;;;5.7;3.4;;;;;;;;;;;;;
2021/08/20 00:56:18;;;;;;;5.1;3.8;;;;;;;;;;;;;
2021/08/20 00:58:44;;;;;;;6.4;3.9;;;;;;;;;;;;;
2021/08/20 01:01:09;;;;;;;5.4;3.6;;;;;;;;;;;;;
2021/08/20 01:03:34;;;;;;;5.8;3.9;;;;;;;;;;;;;
2021/08/20 01:06:00;;;;;;;4.9;3.7;;;;;;;;;;;;;
2021/08/20 01:08:28;;;;;;;5.9;3.7;;;;;;;;;;;;;
2021/08/20 01:10:54;;;;;;;5.9;3.8;;;;;;;;;;;;;
2021/08/20 01:13:20;;;;;;;5.2;3.8;;;;;;;;;;;;;
2021/08/20 01:15:46;;;;;;;4.6;3.3;;;;;;;;;;;;;
2021/08/20 01:18:11;;;;;;;5.6;3.6;;;;;;;;;;;;;
2021/08/20 01:20:36;;;;;;;5;4;;;;;;;;;;;;;
2021/08/20 01:23:06;;;;;;;4.9;3.7;;;;;;;;;;;;;
2021/08/20 01:25:28;;;;;;;4.7;3.8;;;;;;;;;;;;;
2021/08/20 01:27:53;;;;;;;4.8;4;;;;;;;;;;;;;
2021/08/20 01:30:19;;;;;;;4.5;3.4;;;;;;;;;;;;;
2021/08/20 01:32:44;;;;;;;4.8;3.7;;;;;;;;;;;;;
2021/08/20 01:35:09;;;;;;;5.2;3.8;;;;;;;;;;;;;
2021/08/20 01:37:34;;;;;;;5;3.8;;;;;;;;;;;;;
2021/08/20 01:39:59;;;;;;;4.6;3.5;;;;;;;;;;;;;
2021/08/20 01:42:25;;;;;;;4.9;3.5;;;;;;;;;;;;;
2021/08/20 01:44:50;;;;;;;4.9;3.7;;;;;;;;;;;;;
2021/08/20 01:47:17;;;;;;;6.1;3.9;;;;;;;;;;;;;
2021/08/20 01:49:42;;;;;;;4.3;3.5;;;;;;;;;;;;;
2021/08/20 01:52:07;;;;;;;4.5;3.5;;;;;;;;;;;;;
2021/08/20 01:54:33;;;;;;;5;3.9;;;;;;;;;;;;;
2021/08/20 01:56:58;;;;;;;4.8;3.9;;;;;;;;;;;;;
2021/08/20 01:59:23;;;;;;;4.8;3.6;;;;;;;;;;;;;
2021/08/20 02:01:50;;;;;;;5.8;3.8;;;;;;;;;;;;;
2021/08/20 02:04:15;;;;;;;5.4;3.9;;;;;;;;;;;;;
2021/08/20 02:06:41;;;;;;;5.9;3.7;;;;;;;;;;;;;
2021/08/20 02:09:06;;;;;;;4.8;3.7;;;;;;;;;;;;;
2021/08/20 02:11:32;;;;;;;5.1;3.9;;;;;;;;;;;;;
2021/08/20 02:13:58;;;;;;;6.2;3.9;;;;;;;;;;;;;
2021/08/20 02:16:23;;;;;;;4.9;3.8;;;;;;;;;;;;;
2021/08/20 02:18:48;;;;;;;5.2;3.8;;;;;;;;;;;;;
2021/08/20 02:21:13;;;;;;;4.2;3.5;;;;;;;;;;;;;
2021/08/20 02:23:38;;;;;;;6.8;4.2;;;;;;;;;;;;;
2021/08/20 02:26:04;;;;;;;7.9;4.6;;;;;;;;;;;;;
2021/08/20 02:28:29;;;;;;;6.3;4;;;;;;;;;;;;;
2021/08/20 02:30:54;;;;;;;6.1;3.9;;;;;;;;;;;;;
2021/08/20 02:33:19;;;;;;;5.6;3.9;;;;;;;;;;;;;
2021/08/20 02:35:44;;;;;;;6.5;3.9;;;;;;;;;;;;;
2021/08/20 02:38:09;;;;;;;6.5;4.2;;;;;;;;;;;;;
2021/08/20 02:40:34;;;;;;;5.2;4.1;;;;;;;;;;;;;
2021/08/20 02:42:59;;;;;;;6.3;4.2;;;;;;;;;;;;;
2021/08/20 02:45:25;;;;;;;5.5;4;;;;;;;;;;;;;
2021/08/20 02:47:50;;;;;;;5.8;3.8;;;;;;;;;;;;;
2021/08/20 02:50:15;;;;;;;5.5;3.9;;;;;;;;;;;;;
2021/08/20 02:52:41;;;;;;;4.9;3.6;;;;;;;;;;;;;
2021/08/20 02:55:06;;;;;;;5.2;3.9;;;;;;;;;;;;;
2021/08/20 02:57:31;;;;;;;5.1;4.2;;;;;;;;;;;;;
2021/08/20 02:59:56;;;;;;;4.9;3.8;;;;;;;;;;;;;
2021/08/20 03:02:21;;;;;;;6.7;4.4;;;;;;;;;;;;;
2021/08/20 03:04:46;;;;;;;5.2;4.1;;;;;;;;;;;;;
2021/08/20 03:07:12;;;;;;;5.5;4.2;;;;;;;;;;;;;
2021/08/20 03:09:37;;;;;;;6.1;4.1;;;;;;;;;;;;;
2021/08/20 03:12:02;;;;;;;6.9;4.6;;;;;;;;;;;;;
2021/08/20 03:14:28;;;;;;;6.9;4.4;;;;;;;;;;;;;
2021/08/20 03:16:53;;;;;;;7.1;4.3;;;;;;;;;;;;;
2021/08/20 03:19:18;;;;;;;5.4;4.2;;;;;;;;;;;;;
2021/08/20 03:21:43;;;;;;;6.1;4.1;;;;;;;;;;;;;
2021/08/20 03:24:09;;;;;;;5.3;4;;;;;;;;;;;;;
2021/08/20 03:26:34;;;;;;;4.7;3.8;;;;;;;;;;;;;
2021/08/20 03:29:00;;;;;;;7.8;4.2;;;;;;;;;;;;;
2021/08/20 03:31:25;;;;;;;5.4;3.6;;;;;;;;;;;;;
2021/08/20 03:33:50;;;;;;;5.9;4.3;;;;;;;;;;;;;
2021/08/20 03:36:15;;;;;;;6.6;4.5;;;;;;;;;;;;;
2021/08/20 03:38:40;;;;;;;5.8;4.1;;;;;;;;;;;;;
2021/08/20 03:41:06;;;;;;;5.8;4.1;;;;;;;;;;;;;
2021/08/20 03:43:31;;;;;;;4.4;3.9;;;;;;;;;;;;;
2021/08/20 03:45:56;;;;;;;4.6;3.8;;;;;;;;;;;;;
2021/08/20 03:48:21;;;;;;;7.2;4.4;;;;;;;;;;;;;
2021/08/20 03:50:46;;;;;;;6;4.2;;;;;;;;;;;;;
2021/08/20 03:53:11;;;;;;;4.3;3.4;;;;;;;;;;;;;
2021/08/20 03:55:36;;;;;;;4.6;3.9;;;;;;;;;;;;;
2021/08/20 03:58:01;;;;;;;6.7;4;;;;;;;;;;;;;
2021/08/20 04:02:31;;;;;;;7.8;6.5;;;;;;;15.92;89.25391;938.3547;;;;
2021/08/20 04:04:56;;;;;;;6.5;5;;;;;;;15.94;88.83984;938.3834;;;;
2021/08/20 04:07:23;;;;;;;5.7;4.5;;;;;;;15.9;89.11133;938.3822;;;;
2021/08/20 04:09:48;;;;;;;6.5;4;;;;;;;15.92;89.13672;938.4012;;;;
2021/08/20 04:12:14;;;;;;;5.8;4.3;;;;;;;15.86;88.63965;938.4067;;;;
2021/08/20 04:14:39;;;;;;;6.5;4.3;;;;;;;15.89;88.69141;938.3574;;;;
2021/08/20 04:17:05;;;;;;;5.9;4.3;;;;;;;15.8;88.59277;938.3782;;;;
2021/08/20 04:19:30;;;;;;;5.1;3.3;;;;;;;15.77;89.47656;938.4025;;;;
2021/08/20 04:21:57;;;;;;;6.5;4.2;;;;;;;15.92;88.69727;938.4294;;;;
2021/08/20 04:24:22;;;;;;;5.3;3.6;;;;;;;15.91;89.52734;938.4367;;;;
2021/08/20 04:26:49;;;;;;;5.7;3.7;;;;;;;16;88.83105;938.4027;;;;
2021/08/20 04:29:14;;;;;;;6.1;4.4;;;;;;;16.12;87.91602;938.4885;;;;
2021/08/20 04:31:41;;;;;;;5.6;3.8;;;;;;;16.13;87.73535;938.4714;;;;
2021/08/20 04:34:06;;;;;;;4.3;3.3;;;;;;;15.95;88.64648;938.519;;;;
2021/08/20 04:36:34;;;;;;;6;3.9;;;;;;;15.79;89.12207;938.5187;;;;
2021/08/20 04:38:59;;;;;;;5.6;3.7;;;;;;;15.85;89.01758;938.5105;;;;
2021/08/20 04:41:26;;;;;;;4.2;3.5;;;;;;;15.92;88.44434;938.5345;;;;
2021/08/20 04:43:51;;;;;;;6.3;4.1;;;;;;;15.96;88.47559;938.5173;;;;
2021/08/20 04:46:16;;;;;;;4.4;3.7;;;;;;;15.97;87.8877;938.5477;;;;
2021/08/20 04:48:41;;;;;;;5;3.6;;;;;;;16.03;87.80762;938.5072;;;;
2021/08/20 04:51:06;;;;;;;5.3;3.5;;;;;;;16.01;87.69824;938.5722;;;;
2021/08/20 04:53:33;;;;;;;5.2;4.1;;;;;;;15.96;88.08203;938.5309;;;;
2021/08/20 04:55:58;;;;;;;5;3.8;;;;;;;15.68;89.46973;938.5376;;;;
2021/08/20 04:58:24;;;;;;;5.4;3.8;;;;;;;15.65;89.40625;938.5547;;;;
2021/08/20 05:00:49;;;;;;;6.5;3.7;;;;;;;15.58;90.16602;938.5956;;;;
2021/08/20 05:03:15;;;;;;;7.4;4.2;;;;;;;15.57;90.37207;938.6303;;;;
2021/08/20 05:05:40;;;;;;;7.5;3.9;;;;;;;15.56;90.57813;938.5975;;;;
2021/08/20 05:08:06;;;;;;;10.2;5;;;;;;;15.79;89.71387;938.5814;;;;
2021/08/20 05:10:31;;;;;;;5.7;3.9;;;;;;;15.93;89.11719;938.6356;;;;
2021/08/20 05:12:57;;;;;;;5.3;4.1;;;;;;;15.76;89.1748;938.6033;;;;
2021/08/20 05:15:26;;;;;;;5.6;4.1;;;;;;;15.68;90.46387;938.6556;;;;
2021/08/20 05:17:47;;;;;;;6.3;4.2;;;;;;;15.8;89.42676;938.6872;;;;
2021/08/20 05:20:14;;;;;;;5.4;4.1;;;;;;;15.68;90.12891;938.6772;;;;
2021/08/20 05:22:40;;;;;;;5.8;4;;;;;;;15.91;89.33105;938.7411;;;;
2021/08/20 05:25:05;;;;;;;4.9;3.7;;;;;;;16.01;88.79688;938.7425;;;;
2021/08/20 05:27:30;;;;;;;5.8;3.6;;;;;;;16.09;88.46582;938.8045;;;;
2021/08/20 05:29:56;;;;;;;5.4;4.1;;;;;;;16.24;87.95313;938.726;;;;
2021/08/20 05:32:21;;;;;;;6.2;4.1;;;;;;;16.35;87.15332;938.8139;;;;
2021/08/20 05:34:47;;;;;;;7.2;4.4;;;;;;;16.45;86.19922;938.7841;;;;
2021/08/20 05:37:12;;;;;;;5.3;3.8;;;;;;;16.51;86.18848;938.8621;;;;
2021/08/20 05:39:38;;;;;;;5.6;3.7;;;;;;;16.55;86.19922;938.8543;;;;
2021/08/20 05:42:05;;;;;;;4.9;4;;;;;;;16.56;86.28027;938.8558;;;;
2021/08/20 05:44:30;;;;;;;6.5;4;;;;;;;16.56;86.09473;938.8606;;;;
2021/08/20 05:46:54;;;;;;;6.5;3.8;;;;;;;16.6;86.55566;938.8842;;;;
2021/08/20 05:49:21;;;;;;;5.6;3.5;;;;;;;16.69;85.7627;938.9222;;;;
2021/08/20 05:51:48;;;;;;;5.6;3.6;;;;;;;16.68;86.43066;938.8855;;;;
2021/08/20 05:56:48;;;;;;;5.4;4;;;;;;;16.73;86.41797;938.9684;;;;
2021/08/20 05:59:13;;;;;;;4.6;3.3;;;;;;;16.73;86.08203;938.9515;;;;
2021/08/20 06:01:38;;;;;;;5.5;3.9;;;;;;;16.83;85.7334;938.9303;;;;
2021/08/20 06:04:04;;;;;;;5;4;;;;;;;16.88;85.94824;938.9378;;;;
2021/08/20 06:06:28;;;;;;;7.4;4.1;;;;;;;16.92;84.5918;938.9508;;;;
2021/08/20 06:08:55;;;;;;;6.4;4.2;;;;;;;16.9;84.27441;938.9745;;;;
2021/08/20 06:11:20;;;;;;;5.9;4.1;;;;;;;16.97;84.69531;938.9453;;;;
2021/08/20 06:13:49;;;;;;;5.7;4.2;;;;;;;17.01;84.31934;938.8915;;;;
2021/08/20 06:16:11;;;;;;;7.1;4.4;;;;;;;16.99;84.20801;938.9651;;;;
2021/08/20 06:18:37;;;;;;;4.9;3.7;;;;;;;17.02;84.36621;938.8795;;;;
2021/08/20 06:21:02;;;;;;;5;4;;;;;;;17.08;84.33203;938.9464;;;;
2021/08/20 06:23:29;;;;;;;5.1;3.7;;;;;;;17;84.89551;938.887;;;;
2021/08/20 06:25:54;;;;;;;4.9;3.6;;;;;;;;;;;;;
2021/08/20 06:28:19;;;;;;;5.6;3.8;;;;;;;;;;;;;
2021/08/20 06:30:47;;;;;;;5.2;3.9;;;;;;;;;;;;;
2021/08/20 06:33:11;;;;;;;4.6;3.8;;;;;;;;;;;;;
2021/08/20 06:35:36;;;;;;;5.7;4.3;;;;;;;;;;;;;
2021/08/20 06:38:01;;;;;;;5.8;3.7;;;;;;;;;;;;;
2021/08/20 06:40:26;;;;;;;4.7;3.9;;;;;;;;;;;;;
2021/08/20 06:42:51;;;;;;;5;4;;;;;;;;;;;;;
2021/08/20 06:45:16;;;;;;;5.3;3.5;;;;;;;;;;;;;
2021/08/20 06:47:42;;;;;;;5.3;3.6;;;;;;;;;;;;;
2021/08/20 06:50:09;;;;;;;5.3;3.6;;;;;;;;;;;;;
2021/08/20 06:52:34;;;;;;;5.3;3.9;;;;;;;;;;;;;
2021/08/20 06:55:00;;;;;;;5.8;4;;;;;;;;;;;;;
2021/08/20 06:57:25;;;;;;;5.7;3.6;;;;;;;;;;;;;
2021/08/20 06:59:50;;;;;;;5.8;3.8;;;;;;;;;;;;;
2021/08/20 07:02:15;;;;;;;5.7;3.8;;;;;;;;;;;;;
2021/08/20 07:04:40;;;;;;;4.6;3.9;;;;;;;;;;;;;
2021/08/20 07:07:06;;;;;;;5.3;3.4;;;;;;;;;;;;;
2021/08/20 07:09:31;;;;;;;6.4;3.9;;;;;;;;;;;;;
2021/08/20 07:11:56;;;;;;;5;3.7;;;;;;;;;;;;;
2021/08/20 07:14:21;;;;;;;5.6;3.6;;;;;;;;;;;;;
2021/08/20 07:16:46;;;;;;;5.4;3.6;;;;;;;;;;;;;
2021/08/20 07:19:11;;;;;;;6;3.9;;;;;;;;;;;;;
2021/08/20 07:21:36;;;;;;;6.3;3.7;;;;;;;;;;;;;
2021/08/20 07:24:02;;;;;;;6.6;4.4;;;;;;;;;;;;;
2021/08/20 07:26:27;;;;;;;5.5;3.9;;;;;;;;;;;;;
2021/08/20 07:28:53;;;;;;;6.1;3.5;;;;;;;;;;;;;
2021/08/20 07:31:18;;;;;;;5.4;4.1;;;;;;;;;;;;;
2021/08/20 07:33:43;;;;;;;4.9;3.8;;;;;;;;;;;;;
2021/08/20 07:36:08;;;;;;;5.4;3.7;;;;;;;;;;;;;
2021/08/20 07:38:33;;;;;;;4.1;3.3;;;;;;;;;;;;;
2021/08/20 07:40:59;;;;;;;5.4;3.8;;;;;;;;;;;;;
2021/08/20 07:43:24;;;;;;;6;3.7;;;;;;;;;;;;;
2021/08/20 07:45:50;;;;;;;5;3.7;;;;;;;;;;;;;
2021/08/20 07:48:15;;;;;;;4.5;3.5;;;;;;;;;;;;;
2021/08/20 07:50:42;;;;;;;4.9;3.6;;;;;;;;;;;;;
2021/08/20 07:53:06;;;;;;;3.8;3.2;;;;;;;;;;;;;
2021/08/20 07:55:33;;;;;;;4.1;3.4;;;;;;;;;;;;;
2021/08/20 07:57:57;;;;;;;3.9;3.2;;;;;;;;;;;;;
2021/08/20 08:00:22;;;;;;;5.4;3.1;;;;;;;;;;;;;
2021/08/20 08:02:47;;;;;;;4.6;3.3;;;;;;;;;;;;;
2021/08/20 08:05:12;;;;;;;3.7;3.3;;;;;;;;;;;;;
2021/08/20 08:07:37;;;;;;;5;3.3;;;;;;;;;;;;;
2021/08/20 08:10:02;;;;;;;4.5;3.1;;;;;;;;;;;;;
2021/08/20 08:12:27;;;;;;;4.3;3.3;;;;;;;;;;;;;
2021/08/20 08:14:53;;;;;;;4.8;3.4;;;;;;;;;;;;;
2021/08/20 08:17:18;;;;;;;3.3;3;;;;;;;;;;;;;
2021/08/20 08:19:43;;;;;;;4.3;3.1;;;;;;;;;;;;;
2021/08/20 08:22:08;;;;;;;4.4;2.9;;;;;;;;;;;;;
2021/08/20 08:24:33;;;;;;;4.1;3;;;;;;;;;;;;;
2021/08/20 08:26:58;;;;;;;4.5;3.2;;;;;;;;;;;;;
2021/08/20 08:29:23;;;;;;;3.5;3;;;;;;;;;;;;;
2021/08/20 08:31:49;;;;;;;3.9;3;;;;;;;;;;;;;
2021/08/20 08:34:14;;;;;;;4;3.1;;;;;;;;;;;;;
2021/08/20 08:36:39;;;;;;;3.9;3.1;;;;;;;;;;;;;
2021/08/20 08:39:04;;;;;;;4.4;3.2;;;;;;;;;;;;;
2021/08/20 08:41:29;;;;;;;3.3;3;;;;;;;;;;;;;
2021/08/20 08:43:54;;;;;;;5;3.1;;;;;;;;;;;;;
2021/08/20 08:46:19;;;;;;;3.4;2.8;;;;;;;;;;;;;
2021/08/20 08:48:44;;;;;;;4.3;3.2;;;;;;;;;;;;;
2021/08/20 08:51:10;;;;;;;3.7;2.8;;;;;;;;;;;;;
2021/08/20 08:53:35;;;;;;;3.3;2.8;;;;;;;;;;;;;
2021/08/20 08:56:00;;;;;;;3.7;3;;;;;;;;;;;;;
2021/08/20 08:58:25;;;;;;;3.1;2.7;;;;;;;;;;;;;
2021/08/20 09:00:50;;;;;;;4.5;2.8;;;;;;;;;;;;;
2021/08/20 09:03:15;;;;;;;3;2.6;;;;;;;;;;;;;
2021/08/20 09:05:41;;;;;;;4.2;2.9;;;;;;;;;;;;;
2021/08/20 09:08:06;;;;;;;3;2.7;;;;;;;;;;;;;
2021/08/20 09:10:31;;;;;;;4.7;2.9;;;;;;;;;;;;;
2021/08/20 09:12:56;;;;;;;3.3;2.7;;;;;;;;;;;;;
2021/08/20 09:15:23;;;;;;;3.9;2.9;;;;;;;;;;;;;
2021/08/20 09:17:48;;;;;;;3.3;2.7;;;;;;;;;;;;;
2021/08/20 09:20:13;;;;;;;3.3;3;;;;;;;;;;;;;
2021/08/20 09:22:39;;;;;;;3.6;2.9;;;;;;;;;;;;;
2021/08/20 09:25:05;;;;;;;3.5;2.8;;;;;;;;;;;;;
2021/08/20 09:27:32;;;;;;;4.2;2.7;;;;;;;;;;;;;
2021/08/20 09:29:57;;;;;;;3.4;2.7;;;;;;;;;;;;;
2021/08/20 09:32:24;;;;;;;4.1;2.9;;;;;;;;;;;;;
2021/08/20 09:34:47;;;;;;;3;2.7;;;;;;;;;;;;;
2021/08/20 09:37:12;;;;;;;5.2;2.7;;;;;;;;;;;;;
2021/08/20 09:39:37;;;;;;;4;3.1;;;;;;;;;;;;;
2021/08/20 09:42:03;;;;;;;3;2.6;;;;;;;;;;;;;
2021/08/20 09:44:29;;;;;;;4.5;3.1;;;;;;;;;;;;;
2021/08/20 09:46:55;;;;;;;4.7;3.1;;;;;;;;;;;;;
2021/08/20 09:49:18;;;;;;;4.1;3;;;;;;;;;;;;;
2021/08/20 09:51:44;;;;;;;4.3;3.1;;;;;;;;;;;;;
2021/08/20 09:54:09;;;;;;;4;2.8;;;;;;;;;;;;;
2021/08/20 09:56:36;;;;;;;4.6;3;;;;;;;;;;;;;
2021/08/20 09:59:00;;;;;;;3.3;2.8;;;;;;;;;;;;;
2021/08/20 10:01:26;;;;;;;3.7;2.9;;;;;;;;;;;;;
2021/08/20 10:03:51;;;;;;;4.2;2.6;;;;;;;;;;;;;
2021/08/20 10:06:16;;;;;;;3.5;2.8;;;;;;;;;;;;;
2021/08/20 10:08:41;;;;;;;5.2;2.7;;;;;;;;;;;;;
2021/08/20 10:11:06;;;;;;;4.1;3;;;;;;;;;;;;;
2021/08/20 10:13:31;;;;;;;5.1;3.2;;;;;;;;;;;;;
2021/08/20 10:15:57;;;;;;;5;3.1;;;;;;;;;;;;;
2021/08/20 10:18:22;;;;;;;3.4;2.8;;;;;;;;;;;;;
2021/08/20 10:20:47;;;;;;;3.7;2.7;;;;;;;;;;;;;
2021/08/20 10:23:15;;;;;;;4.1;2.9;;;;;;;;;;;;;
2021/08/20 10:25:37;;;;;;;5.1;3.2;;;;;;;;;;;;;
2021/08/20 10:28:02;;;;;;;4.1;3.1;;;;;;;;;;;;;
2021/08/20 10:30:27;;;;;;;4.1;2.9;;;;;;;;;;;;;
2021/08/20 10:32:52;;;;;;;3.3;3;;;;;;;;;;;;;
2021/08/20 10:35:47;;;;;;;3;2.7;;;;;;;;;;;;;
2021/08/20 10:38:13;;;;;;;3.4;2.7;;;;;;;;;;;;;
2021/08/20 10:40:38;;;;;;;3.4;3;;;;;;;;;;;;;
2021/08/20 10:43:03;;;;;;;3.2;2.9;;;;;;;;;;;;;
2021/08/20 10:45:28;;;;;;;3.8;3;;;;;;;;;;;;;
2021/08/20 10:47:53;;;;;;;4;2.9;;;;;;;;;;;;;
2021/08/20 10:50:18;;;;;;;3.2;2.8;;;;;;;;;;;;;
2021/08/20 10:52:43;;;;;;;3.6;2.6;;;;;;;;;;;;;
2021/08/20 10:55:09;;;;;;;3.4;3;;;;;;;;;;;;;
2021/08/20 10:57:35;;;;;;;3.3;2.6;;;;;;;;;;;;;
2021/08/20 11:00:00;;;;;;;3.3;2.7;;;;;;;;;;;;;
2021/08/20 11:02:25;;;;;;;3.7;2.8;;;;;;;;;;;;;
2021/08/20 11:04:50;;;;;;;3.3;3;;;;;;;;;;;;;
2021/08/20 11:07:15;;;;;;;3.1;2.6;;;;;;;;;;;;;
2021/08/20 11:09:40;;;;;;;3.5;2.9;;;;;;;;;;;;;
2021/08/20 11:12:06;;;;;;;2.8;2.6;;;;;;;;;;;;;
2021/08/20 11:14:31;;;;;;;3;2.5;;;;;;;;;;;;;
2021/08/20 11:16:56;;;;;;;3.5;2.7;;;;;;;;;;;;;
2021/08/20 11:19:21;;;;;;;5.4;2.6;;;;;;;;;;;;;
2021/08/20 11:21:46;;;;;;;3.4;2.8;;;;;;;;;;;;;
2021/08/20 11:24:11;;;;;;;3.3;2.5;;;;;;;;;;;;;
2021/08/20 11:26:37;;;;;;;3.6;2.6;;;;;;;;;;;;;
2021/08/20 11:29:02;;;;;;;4.6;2.9;;;;;;;;;;;;;
2021/08/20 11:31:27;;;;;;;3.1;2.8;;;;;;;;;;;;;
2021/08/20 11:33:52;;;;;;;3.2;2.4;;;;;;;;;;;;;
2021/08/20 11:36:18;;;;;;;3.8;2.9;;;;;;;;;;;;;
2021/08/20 11:38:42;;;;;;;3.1;2.8;;;;;;;;;;;;;
2021/08/20 11:41:09;;;;;;;3.8;3.1;;;;;;;;;;;;;
2021/08/20 11:43:32;;;;;;;3.6;2.9;;;;;;;;;;;;;
2021/08/20 11:45:57;;;;;;;3;2.7;;;;;;;;;;;;;
2021/08/20 11:48:22;;;;;;;3.1;2.8;;;;;;;;;;;;;
2021/08/20 11:50:48;;;;;;;3.2;2.7;;;;;;;;;;;;;
2021/08/20 11:53:12;;;;;;;3.2;2.7;;;;;;;;;;;;;
2021/08/20 11:55:38;;;;;;;3.3;2.8;;;;;;;;;;;;;
2021/08/20 11:58:03;;;;;;;3;2.7;;;;;;;;;;;;;
2021/08/20 12:00:28;;;;;;;3.9;3.1;;;;;;;;;;;;;
2021/08/20 12:02:53;;;;;;;3.9;2.8;;;;;;;;;;;;;
2021/08/20 12:05:18;;;;;;;3.3;2.8;;;;;;;;;;;;;
2021/08/20 12:07:43;;;;;;;3.4;3.1;;;;;;;;;;;;;
2021/08/20 12:10:09;;;;;;;3.4;3;;;;;;;;;;;;;
2021/08/20 12:12:34;;;;;;;3.3;3;;;;;;;;;;;;;
2021/08/20 12:14:59;;;;;;;3;2.7;;;;;;;;;;;;;
2021/08/20 12:17:28;;;;;;;5.4;3.2;;;;;;;;;;;;;
2021/08/20 12:19:49;;;;;;;3.1;2.4;;;;;;;;;;;;;
2021/08/20 12:22:15;;;;;;;3.3;2.8;;;;;;;;;;;;;
2021/08/20 12:24:40;;;;;;;3;2.7;;;;;;;;;;;;;
2021/08/20 12:27:04;;;;;;;3;2.7;;;;;;;;;;;;;
2021/08/20 12:29:30;;;;;;;3.6;2.8;;;;;;;;;;;;;
2021/08/20 12:31:56;;;;;;;3.6;3;;;;;;;;;;;;;
2021/08/20 12:34:21;;;;;;;3.9;2.7;;;;;;;;;;;;;
2021/08/20 12:36:47;;;;;;;4;2.8;;;;;;;;;;;;;
2021/08/20 12:39:11;;;;;;;3.5;3;;;;;;;;;;;;;
2021/08/20 12:41:37;;;;;;;4.3;3;;;;;;;;;;;;;
2021/08/20 12:44:01;;;;;;;4.8;3.2;;;;;;;;;;;;;
2021/08/20 12:46:26;;;;;;;3.2;2.9;;;;;;;;;;;;;
2021/08/20 12:48:51;;;;;;;4.9;2.7;;;;;;;;;;;;;
2021/08/20 12:51:16;;;;;;;3.4;2.7;;;;;;;;;;;;;
2021/08/20 12:53:42;;;;;;;4.8;2.9;;;;;;;;;;;;;
2021/08/20 12:56:07;;;;;;;3.4;2.8;;;;;;;;;;;;;
2021/08/20 12:58:32;;;;;;;3.9;2.9;;;;;;;;;;;;;
2021/08/20 13:00:57;;;;;;;3.4;3;;;;;;;;;;;;;
2021/08/20 13:03:22;;;;;;;4;3;;;;;;;;;;;;;
2021/08/20 13:05:47;;;;;;;3.2;2.8;;;;;;;;;;;;;
2021/08/20 13:08:12;;;;;;;4.1;3.1;;;;;;;;;;;;;
2021/08/20 13:10:37;;;;;;;4.7;2.9;;;;;;;;;;;;;
2021/08/20 13:13:04;;;;;;;3.7;2.8;;;;;;;;;;;;;
2021/08/20 13:15:28;;;;;;;8.5;3.4;;;;;;;;;;;;;
2021/08/20 13:17:53;;;;;;;4;2.9;;;;;;;;;;;;;
2021/08/20 13:20:18;;;;;;;7.1;3.1;;;;;;;;;;;;;
2021/08/20 13:22:46;;;;;;;4.5;3;;;;;;;;;;;;;
2021/08/20 13:25:10;;;;;;;3.6;3;;;;;;;;;;;;;
2021/08/20 13:27:35;;;;;;;4.6;3;;;;;;;;;;;;;
2021/08/20 13:30:01;;;;;;;6.3;3.5;;;;;;;;;;;;;
2021/08/20 13:32:26;;;;;;;3.6;2.7;;;;;;;;;;;;;
2021/08/20 13:37:16;;;;;;;3.4;2.9;;;;;;;;;;;;;
2021/08/20 13:39:41;;;;;;;3.7;2.9;;;;;;;;;;;;;
2021/08/20 13:42:06;;;;;;;3.3;3;;;;;;;;;;;;;
2021/08/20 13:44:31;;;;;;;3.4;3.1;;;;;;;;;;;;;
2021/08/20 13:46:57;;;;;;;7;3.4;;;;;;;;;;;;;
2021/08/20 13:49:22;;;;;;;3.1;2.8;;;;;;;;;;;;;
2021/08/20 13:51:47;;;;;;;3.9;3.1;;;;;;;;;;;;;
2021/08/20 13:54:12;;;;;;;4;3.1;;;;;;;;;;;;;
2021/08/20 13:56:37;;;;;;;4.3;3.1;;;;;;;;;;;;;
2021/08/20 13:59:04;;;;;;;5;3.1;;;;;;;;;;;;;
2021/08/20 14:01:29;;;;;;;3.3;2.8;;;;;;;;;;;;;
2021/08/20 14:03:54;;;;;;;3.5;2.8;;;;;;;;;;;;;
2021/08/20 14:06:19;;;;;;;2.9;2.6;;;;;;;;;;;;;
2021/08/20 14:08:44;;;;;;;3.3;2.6;;;;;;;;;;;;;
2021/08/20 14:11:10;;;;;;;3.1;2.6;;;;;;;;;;;;;
2021/08/20 14:13:35;;;;;;;3.8;3.2;;;;;;;;;;;;;
2021/08/20 14:16:00;;;;;;;3.1;2.8;;;;;;;;;;;;;
2021/08/20 14:18:25;;;;;;;3.5;2.7;;;;;;;;;;;;;
2021/08/20 14:20:50;;;;;;;4.2;3.2;;;;;;;;;;;;;
2021/08/20 14:23:16;;;;;;;2.9;2.5;;;;;;;;;;;;;
2021/08/20 14:25:40;;;;;;;3.6;2.9;;;;;;;;;;;;;
2021/08/20 14:28:05;;;;;;;4.1;2.9;;;;;;;;;;;;;
2021/08/20 14:30:31;;;;;;;4.1;2.8;;;;;;;;;;;;;
2021/08/20 14:32:56;;;;;;;3.3;2.7;;;;;;;;;;;;;
2021/08/20 14:35:21;;;;;;;3.9;3.2;;;;;;;;;;;;;
2021/08/20 14:37:46;;;;;;;4.4;3.1;;;;;;;;;;;;;
2021/08/20 14:40:11;;;;;;;3.8;2.8;;;;;;;;;;;;;
2021/08/20 14:42:36;;;;;;;3;2.7;;;;;;;;;;;;;
2021/08/20 14:45:02;;;;;;;3.8;2.9;;;;;;;;;;;;;
2021/08/20 14:47:27;;;;;;;3.2;2.9;;;;;;;;;;;;;
2021/08/20 14:49:52;;;;;;;3.7;3;;;;;;;;;;;;;
2021/08/20 14:52:17;;;;;;;4.5;2.9;;;;;;;;;;;;;
2021/08/20 14:54:42;;;;;;;3.1;2.6;;;;;;;;;;;;;
2021/08/20 14:57:07;;;;;;;3.7;2.7;;;;;;;;;;;;;
2021/08/20 14:59:33;;;;;;;3.2;2.8;;;;;;;;;;;;;
2021/08/20 15:01:58;;;;;;;3.6;2.9;;;;;;;;;;;;;
2021/08/20 15:04:23;;;;;;;3.7;2.9;;;;;;;;;;;;;
2021/08/20 15:06:49;;;;;;;4.3;3;;;;;;;;;;;;;
2021/08/20 15:09:15;;;;;;;3.8;2.9;;;;;;;;;;;;;
2021/08/20 15:11:39;;;;;;;3.8;3;;;;;;;;;;;;;
2021/08/20 15:14:06;;;;;;;4.4;3;;;;;;;;;;;;;
2021/08/20 15:16:29;;;;;;;3.8;2.9;;;;;;;;;;;;;
2021/08/20 15:18:55;;;;;;;4.8;3.1;;;;;;;;;;;;;
2021/08/20 15:21:20;;;;;;;3.1;2.6;;;;;;;;;;;;;
2021/08/20 15:23:45;;;;;;;3.3;2.7;;;;;;;;;;;;;
2021/08/20 15:26:10;;;;;;;4.3;3.1;;;;;;;;;;;;;
2021/08/20 15:28:35;;;;;;;6;2.9;;;;;;;;;;;;;
2021/08/20 15:31:00;;;;;;;3.6;2.8;;;;;;;;;;;;;
2021/08/20 15:33:25;;;;;;;3.3;2.8;;;;;;;;;;;;;
2021/08/20 15:35:51;;;;;;;4;2.9;;;;;;;;;;;;;
2021/08/20 15:38:16;;;;;;;4.2;2.9;;;;;;;;;;;;;
2021/08/20 15:40:55;;;;;;;3.6;2.8;;;;;;;;;;;;;
2021/08/20 15:43:11;;;;;;;4;2.9;;;;;;;;;;;;;
2021/08/20 15:45:36;;;;;;;3.6;2.8;;;;;;;;;;;;;
2021/08/20 15:48:01;;;;;;;3.9;3;;;;;;;;;;;;;
2021/08/20 15:50:27;;;;;;;4.4;3;;;;;;;;;;;;;
2021/08/20 15:52:51;;;;;;;2.9;2.5;;;;;;;;;;;;;
2021/08/20 15:55:16;;;;;;;3.7;2.8;;;;;;;;;;;;;
2021/08/20 15:57:41;;;;;;;3;2.7;;;;;;;;;;;;;
2021/08/20 16:00:07;;;;;;;5.7;3;;;;;;;;;;;;;
2021/08/20 16:02:32;;;;;;;3.8;2.7;;;;;;;;;;;;;
2021/08/20 16:04:58;;;;;;;3.7;2.8;;;;;;;;;;;;;
2021/08/20 16:07:23;;;;;;;3.3;2.8;;;;;;;;;;;;;
2021/08/20 16:09:48;;;;;;;3;2.7;;;;;;;;;;;;;
2021/08/20 16:12:14;;;;;;;3.1;2.8;;;;;;;;;;;;;
2021/08/20 16:14:38;;;;;;;4;3.1;;;;;;;;;;;;;
2021/08/20 16:17:04;;;;;;;3.4;2.5;;;;;;;;;;;;;
2021/08/20 16:19:29;;;;;;;3.4;2.9;;;;;;;;;;;;;
2021/08/20 16:21:54;;;;;;;4.6;2.8;;;;;;;;;;;;;
2021/08/20 16:24:19;;;;;;;3.7;2.7;;;;;;;;;;;;;
2021/08/20 16:26:44;;;;;;;3;2.7;;;;;;;;;;;;;
2021/08/20 16:29:09;;;;;;;3.8;3;;;;;;;;;;;;;
2021/08/20 16:31:34;;;;;;;3.2;2.9;;;;;;;;;;;;;
2021/08/20 16:33:59;;;;;;;3.4;2.7;;;;;;;;;;;;;
2021/08/20 16:36:25;;;;;;;3.8;3;;;;;;;;;;;;;
2021/08/20 16:38:49;;;;;;;3.3;2.8;;;;;;;;;;;;;
2021/08/20 16:41:14;;;;;;;3.8;2.7;;;;;;;;;;;;;
2021/08/20 16:43:40;;;;;;;3.5;2.9;;;;;;;;;;;;;
2021/08/20 16:46:05;;;;;;;3.4;2.9;;;;;;;;;;;;;
2021/08/20 16:48:30;;;;;;;5;2.9;;;;;;;;;;;;;
2021/08/20 16:50:55;;;;;;;3.8;2.9;;;;;;;;;;;;;
2021/08/20 16:53:20;;;;;;;3.3;2.6;;;;;;;;;;;;;
2021/08/20 16:55:45;;;;;;;3.6;2.7;;;;;;;;;;;;;
2021/08/20 16:58:10;;;;;;;5.5;2.6;;;;;;;;;;;;;
2021/08/20 17:00:35;;;;;;;3.8;2.7;;;;;;;;;;;;;
2021/08/20 17:03:00;;;;;;;3.8;2.8;;;;;;;;;;;;;
2021/08/20 17:05:25;;;;;;;3.3;2.8;;;;;;;;;;;;;
2021/08/20 17:07:50;;;;;;;3.1;2.6;;;;;;;;;;;;;
2021/08/20 17:10:16;;;;;;;3;2.5;;;;;;;;;;;;;
2021/08/20 17:12:41;;;;;;;3.6;2.8;;;;;;;;;;;;;
2021/08/20 17:15:06;;;;;;;2.9;2.6;;;;;;;;;;;;;
2021/08/20 17:17:31;;;;;;;3.5;2.9;;;;;;;;;;;;;
2021/08/20 17:19:56;;;;;;;2.9;2.7;;;;;;;;;;;;;
2021/08/20 17:22:22;;;;;;;3.7;2.8;;;;;;;;;;;;;
2021/08/20 17:24:48;;;;;;;3.7;2.7;;;;;;;;;;;;;
2021/08/20 17:27:12;;;;;;;3.5;2.9;;;;;;;;;;;;;
2021/08/20 17:29:37;;;;;;;3.3;2.7;;;;;;;;;;;;;
2021/08/20 17:32:02;;;;;;;3.2;2.9;;;;;;;;;;;;;
2021/08/20 17:34:27;;;;;;;3.9;3;;;;;;;;;;;;;
2021/08/20 17:36:53;;;;;;;3.7;3.3;;;;;;;;;;;;;
2021/08/20 17:39:18;;;;;;;4.5;3.2;;;;;;;;;;;;;
2021/08/20 17:41:43;;;;;;;3.5;3;;;;;;;;;;;;;
2021/08/20 17:44:08;;;;;;;4.4;3.1;;;;;;;;;;;;;
2021/08/20 17:46:33;;;;;;;3.6;3;;;;;;;;;;;;;
2021/08/20 17:48:59;;;;;;;4.6;3.2;;;;;;;;;;;;;
2021/08/20 17:51:24;;;;;;;3.8;3;;;;;;;;;;;;;
2021/08/20 17:53:49;;;;;;;4.5;3.2;;;;;;;;;;;;;
2021/08/20 17:56:14;;;;;;;5.1;3.3;;;;;;;;;;;;;
2021/08/20 17:58:39;;;;;;;5.9;3.4;;;;;;;;;;;;;
2021/08/20 18:01:05;;;;;;;4.2;3.3;;;;;;;;;;;;;
2021/08/20 18:03:29;;;;;;;4.3;3.2;;;;;;;;;;;;;
2021/08/20 18:05:55;;;;;;;3.3;3;;;;;;;;;;;;;
2021/08/20 18:08:20;;;;;;;4.3;3.3;;;;;;;;;;;;;
2021/08/20 18:10:45;;;;;;;5;3.2;;;;;;;;;;;;;
2021/08/20 18:13:10;;;;;;;4.3;3.3;;;;;;;;;;;;;
2021/08/20 18:15:35;;;;;;;4.2;3.4;;;;;;;;;;;;;
2021/08/20 18:18:00;;;;;;;3.7;3;;;;;;;;;;;;;
2021/08/20 18:20:26;;;;;;;4.1;3.4;;;;;;;;;;;;;
2021/08/20 18:22:51;;;;;;;4.6;3.2;;;;;;;;;;;;;
2021/08/20 18:25:16;;;;;;;5;3.6;;;;;;;;;;;;;
2021/08/20 18:27:41;;;;;;;5.5;3.7;;;;;;;;;;;;;
2021/08/20 18:30:06;;;;;;;5.3;3.5;;;;;;;;;;;;;
2021/08/20 18:32:31;;;;;;;5;3.9;;;;;;;;;;;;;
2021/08/20 18:34:56;;;;;;;5.1;3.8;;;;;;;;;;;;;
2021/08/20 18:37:22;;;;;;;8;6.4;;;;;;;;;;;;;
2021/08/20 18:39:47;;;;;;;7.1;4.8;;;;;;;;;;;;;
2021/08/20 18:42:12;;;;;;;5.6;4.1;;;;;;;;;;;;;
2021/08/20 18:44:37;;;;;;;5.7;4.4;;;;;;;;;;;;;
2021/08/20 18:47:02;;;;;;;10.9;7;;;;;;;;;;;;;
2021/08/20 18:49:27;;;;;;;7.3;5.7;;;;;;;;;;;;;
2021/08/20 18:52:15;;;;;;;5.8;4.4;;;;;;;;;;;;;
2021/08/20 18:54:41;;;;;;;5;4.2;;;;;;;;;;;;;
2021/08/20 18:57:06;;;;;;;5.8;4.6;;;;;;;;;;;;;
2021/08/20 18:59:31;;;;;;;5.8;4;;;;;;;;;;;;;
2021/08/20 19:01:56;;;;;;;4.7;3.6;;;;;;;;;;;;;
2021/08/20 19:04:21;;;;;;;4.8;3.8;;;;;;;;;;;;;
2021/08/20 19:06:46;;;;;;;6.7;4.5;;;;;;;;;;;;;
2021/08/20 19:09:12;;;;;;;4.5;4;;;;;;;;;;;;;
2021/08/20 19:11:37;;;;;;;4.6;3.9;;;;;;;;;;;;;
2021/08/20 19:14:02;;;;;;;5.3;3.6;;;;;;;;;;;;;
2021/08/20 19:16:27;;;;;;;4.9;3.7;;;;;;;;;;;;;
2021/08/20 19:18:53;;;;;;;5.1;3.9;;;;;;;;;;;;;
2021/08/20 19:21:17;;;;;;;4;3.2;;;;;;;;;;;;;
2021/08/20 19:23:42;;;;;;;4.3;3.6;;;;;;;;;;;;;
2021/08/20 19:26:07;;;;;;;4.5;3.1;;;;;;;;;;;;;
2021/08/20 19:28:33;;;;;;;6.2;3.6;;;;;;;;;;;;;
2021/08/20 19:30:58;;;;;;;4.7;3.7;;;;;;;;;;;;;
2021/08/20 19:33:23;;;;;;;4.5;3.8;;;;;;;;;;;;;
2021/08/20 19:35:48;;;;;;;4.4;3.4;;;;;;;;;;;;;
2021/08/20 19:38:14;;;;;;;4.8;3.6;;;;;;;;;;;;;
2021/08/20 19:40:39;;;;;;;5.8;3.6;;;;;;;;;;;;;
2021/08/20 19:43:08;;;;;;;4.5;3.8;;;;;;;;;;;;;